Time,TemperatureF,DewpointF,PressureIn,WindDirection,WindDirectionDegrees,WindSpeedMPH,WindSpeedGustMPH,Humidity,HourlyPrecipIn,Conditions,Clouds,dailyrainin,SoftwareType,DateUTC
2013-02-10 00:05:00,35.1,31.0,30.05,SE,131,2.0,10.0,86,0.00,,,0.00,weatherlink.com 1.10,2013-02-10 06:05:00,
2013-02-10 00:20:00,35.2,31.0,30.05,SE,125,6.0,10.0,86,0.00,,,0.00,weatherlink.com 1.10,2013-02-10 06:20:00,
2013-02-10 00:35:00,35.3,32.0,30.04,SSE,160,5.0,12.0,86,0.00,,,0.00,weatherlink.com 1.10,2013-02-10 06:35:00,
2013-02-10 00:50:00,35.5,32.0,30.02,ESE,102,9.0,10.0,86,0.00,,,0.00,weatherlink.com 1.10,2013-02-10 06:50:00,
2013-02-10 01:05:00,35.6,32.0,30.02,SE,131,9.0,12.0,87,0.00,,,0.00,weatherlink.com 1.10,2013-02-10 07:05:00,
2013-02-10 01:20:00,35.7,33.0,30.02,SE,144,6.0,12.0,88,0.00,,,0.00,weatherlink.com 1.10,2013-02-10 07:20:00,
2013-02-10 01:35:00,35.4,33.0,30.00,SSE,160,11.0,11.0,90,0.00,,,0.00,weatherlink.com 1.10,2013-02-10 07:35:00,
2013-02-10 01:50:00,35.5,33.0,30.00,ESE,121,5.0,12.0,92,0.01,,,0.01,weatherlink.com 1.10,2013-02-10 07:50:00,
2013-02-10 02:05:00,35.5,34.0,30.00,SE,143,4.0,13.0,93,0.04,,,0.04,weatherlink.com 1.10,2013-02-10 08:05:00,
2013-02-10 02:20:00,35.7,34.0,29.99,SSE,149,9.0,16.0,93,0.05,,,0.05,weatherlink.com 1.10,2013-02-10 08:20:00,
2013-02-10 02:35:00,35.7,34.0,29.99,SE,128,4.0,13.0,93,0.05,,,0.05,weatherlink.com 1.10,2013-02-10 08:35:00,
2013-02-10 02:50:00,35.7,34.0,29.96,SE,132,6.0,12.0,94,0.05,,,0.06,weatherlink.com 1.10,2013-02-10 08:50:00,
2013-02-10 03:05:00,35.6,34.0,29.96,SE,137,6.0,14.0,94,0.07,,,0.11,weatherlink.com 1.10,2013-02-10 09:05:00,
2013-02-10 03:20:00,35.3,34.0,29.95,ESE,109,11.0,14.0,94,0.08,,,0.13,weatherlink.com 1.10,2013-02-10 09:20:00,
2013-02-10 03:36:00,35.2,34.0,29.94,ESE,111,8.0,12.0,95,0.10,,,0.15,weatherlink.com 1.10,2013-02-10 09:36:00,
2013-02-10 03:51:00,35.3,34.0,29.94,SE,141,5.0,12.0,95,0.09,,,0.15,weatherlink.com 1.10,2013-02-10 09:51:00,
2013-02-10 04:06:00,35.3,34.0,29.93,SE,126,9.0,13.0,95,0.05,,,0.16,weatherlink.com 1.10,2013-02-10 10:06:00,
2013-02-10 04:21:00,35.5,34.0,29.93,ESE,114,3.0,12.0,95,0.04,,,0.17,weatherlink.com 1.10,2013-02-10 10:21:00,
2013-02-10 04:36:00,35.5,34.0,29.91,SE,124,4.0,12.0,95,0.02,,,0.17,weatherlink.com 1.10,2013-02-10 10:36:00,
2013-02-10 04:51:00,35.5,34.0,29.90,ESE,102,6.0,11.0,95,0.03,,,0.18,weatherlink.com 1.10,2013-02-10 10:51:00,
2013-02-10 05:06:00,35.6,35.0,29.89,ESE,109,7.0,12.0,96,0.04,,,0.20,weatherlink.com 1.10,2013-02-10 11:06:00,
2013-02-10 05:21:00,35.7,34.0,29.87,SE,124,6.0,10.0,95,0.03,,,0.20,weatherlink.com 1.10,2013-02-10 11:21:00,
2013-02-10 05:36:00,35.8,35.0,29.87,ESE,111,5.0,12.0,95,0.04,,,0.21,weatherlink.com 1.10,2013-02-10 11:36:00,
2013-02-10 05:51:00,35.7,35.0,29.84,SE,131,2.0,12.0,96,0.04,,,0.22,weatherlink.com 1.10,2013-02-10 11:51:00,
2013-02-10 06:06:00,35.7,35.0,29.84,ESE,114,4.0,12.0,96,0.03,,,0.23,weatherlink.com 1.10,2013-02-10 12:06:00,
2013-02-10 06:21:00,36.0,35.0,29.83,SE,137,7.0,13.0,96,0.04,,,0.24,weatherlink.com 1.10,2013-02-10 12:21:00,
2013-02-10 06:36:00,36.2,35.0,29.82,SE,131,6.0,11.0,96,0.08,,,0.29,weatherlink.com 1.10,2013-02-10 12:36:00,
2013-02-10 06:51:00,36.6,36.0,29.81,ESE,117,8.0,14.0,96,0.08,,,0.30,weatherlink.com 1.10,2013-02-10 12:51:00,
2013-02-10 07:06:00,36.9,36.0,29.80,ESE,117,8.0,14.0,96,0.08,,,0.31,weatherlink.com 1.10,2013-02-10 13:06:00,
2013-02-10 07:21:00,37.3,36.0,29.80,SE,124,8.0,16.0,96,0.08,,,0.32,weatherlink.com 1.10,2013-02-10 13:21:00,
2013-02-10 07:36:00,37.5,37.0,29.79,ESE,104,4.0,15.0,96,0.03,,,0.32,weatherlink.com 1.10,2013-02-10 13:36:00,
2013-02-10 07:51:00,37.6,37.0,29.77,ESE,119,10.0,12.0,96,0.03,,,0.33,weatherlink.com 1.10,2013-02-10 13:51:00,
2013-02-10 08:06:00,37.8,37.0,29.77,SE,141,9.0,15.0,95,0.02,,,0.33,weatherlink.com 1.10,2013-02-10 14:06:00,
2013-02-10 08:21:00,38.1,37.0,29.76,East,97,8.0,13.0,95,0.01,,,0.33,weatherlink.com 1.10,2013-02-10 14:21:00,
2013-02-10 08:36:00,38.3,37.0,29.75,ESE,121,11.0,19.0,96,0.08,,,0.40,weatherlink.com 1.10,2013-02-10 14:36:00,
2013-02-10 08:51:00,38.5,38.0,29.74,SE,132,9.0,19.0,96,0.11,,,0.44,weatherlink.com 1.10,2013-02-10 14:51:00,
2013-02-10 09:06:00,38.5,38.0,29.74,SSE,155,9.0,17.0,96,0.12,,,0.45,weatherlink.com 1.10,2013-02-10 15:06:00,
2013-02-10 09:21:00,38.4,37.0,29.72,SE,130,6.0,15.0,95,0.13,,,0.46,weatherlink.com 1.10,2013-02-10 15:21:00,
2013-02-10 09:36:00,38.7,37.0,29.70,ESE,117,13.0,18.0,95,0.06,,,0.46,weatherlink.com 1.10,2013-02-10 15:36:00,
2013-02-10 09:51:00,39.1,38.0,29.69,SE,143,9.0,18.0,96,0.02,,,0.47,weatherlink.com 1.10,2013-02-10 15:51:00,
2013-02-10 10:07:00,39.5,39.0,29.68,SE,138,7.0,16.0,96,0.02,,,0.47,weatherlink.com 1.10,2013-02-10 16:07:00,
2013-02-10 10:22:00,40.0,39.0,29.66,ESE,110,6.0,20.0,96,0.02,,,0.48,weatherlink.com 1.10,2013-02-10 16:22:00,
2013-02-10 10:37:00,40.6,40.0,29.65,SE,142,4.0,20.0,96,0.02,,,0.48,weatherlink.com 1.10,2013-02-10 16:37:00,
2013-02-10 10:52:00,40.9,40.0,29.64,SE,146,18.0,19.0,96,0.04,,,0.51,weatherlink.com 1.10,2013-02-10 16:52:00,
2013-02-10 11:07:00,41.3,40.0,29.63,SE,125,17.0,19.0,96,0.04,,,0.51,weatherlink.com 1.10,2013-02-10 17:07:00,
2013-02-10 11:22:00,41.8,41.0,29.61,ESE,117,11.0,19.0,96,0.04,,,0.52,weatherlink.com 1.10,2013-02-10 17:22:00,
2013-02-10 11:37:00,42.3,41.0,29.59,SE,134,11.0,21.0,96,0.04,,,0.52,weatherlink.com 1.10,2013-02-10 17:37:00,
2013-02-10 11:52:00,43.1,42.0,29.57,SSW,198,7.0,18.0,96,0.01,,,0.52,weatherlink.com 1.10,2013-02-10 17:52:00,
2013-02-10 12:07:00,43.8,43.0,29.57,ESE,110,5.0,26.0,96,0.01,,,0.52,weatherlink.com 1.10,2013-02-10 18:07:00,
2013-02-10 12:22:00,44.1,43.0,29.57,SSE,160,7.0,24.0,95,0.00,,,0.52,weatherlink.com 1.10,2013-02-10 18:22:00,
2013-02-10 12:37:00,44.4,43.0,29.56,SSE,155,11.0,20.0,95,0.00,,,0.52,weatherlink.com 1.10,2013-02-10 18:37:00,
2013-02-10 12:52:00,44.7,43.0,29.55,SSE,156,6.0,23.0,95,0.00,,,0.52,weatherlink.com 1.10,2013-02-10 18:52:00,
2013-02-10 13:07:00,44.9,44.0,29.54,SSE,160,15.0,20.0,95,0.00,,,0.52,weatherlink.com 1.10,2013-02-10 19:07:00,
2013-02-10 13:22:00,45.2,44.0,29.53,SSW,199,11.0,23.0,95,0.00,,,0.52,weatherlink.com 1.10,2013-02-10 19:22:00,
2013-02-10 13:37:00,45.4,44.0,29.53,SSE,153,8.0,20.0,95,0.00,,,0.52,weatherlink.com 1.10,2013-02-10 19:37:00,
2013-02-10 13:52:00,45.4,44.0,29.52,SSE,148,9.0,17.0,96,0.00,,,0.52,weatherlink.com 1.10,2013-02-10 19:52:00,
2013-02-10 14:07:00,45.6,45.0,29.52,South,191,9.0,19.0,96,0.00,,,0.52,weatherlink.com 1.10,2013-02-10 20:07:00,
2013-02-10 14:22:00,45.9,45.0,29.50,South,173,13.0,18.0,96,0.00,,,0.52,weatherlink.com 1.10,2013-02-10 20:22:00,
2013-02-10 14:37:00,46.6,46.0,29.48,SE,134,5.0,15.0,96,0.00,,,0.52,weatherlink.com 1.10,2013-02-10 20:37:00,
2013-02-10 14:52:00,47.3,46.0,29.48,SSE,155,10.0,22.0,95,0.00,,,0.52,weatherlink.com 1.10,2013-02-10 20:52:00,
2013-02-10 15:07:00,47.9,46.0,29.48,South,177,14.0,20.0,94,0.00,,,0.52,weatherlink.com 1.10,2013-02-10 21:07:00,
2013-02-10 15:23:00,48.1,47.0,29.46,South,172,4.0,21.0,94,0.00,,,0.52,weatherlink.com 1.10,2013-02-10 21:23:00,
2013-02-10 15:38:00,48.7,47.0,29.45,SW,218,3.0,21.0,93,0.00,,,0.52,weatherlink.com 1.10,2013-02-10 21:38:00,
2013-02-10 15:53:00,48.7,47.0,29.45,SE,142,7.0,19.0,93,0.00,,,0.52,weatherlink.com 1.10,2013-02-10 21:53:00,
2013-02-10 16:08:00,48.8,47.0,29.45,SSE,165,11.0,21.0,93,0.00,,,0.52,weatherlink.com 1.10,2013-02-10 22:08:00,
2013-02-10 16:23:00,49.0,47.0,29.45,SSE,152,8.0,17.0,93,0.00,,,0.52,weatherlink.com 1.10,2013-02-10 22:23:00,
2013-02-10 16:38:00,49.3,47.0,29.46,SE,141,6.0,21.0,92,0.00,,,0.52,weatherlink.com 1.10,2013-02-10 22:38:00,
2013-02-10 16:53:00,49.3,47.0,29.46,SSE,165,12.0,20.0,92,0.00,,,0.52,weatherlink.com 1.10,2013-02-10 22:53:00,
2013-02-10 17:08:00,49.2,47.0,29.45,South,176,11.0,22.0,92,0.00,,,0.52,weatherlink.com 1.10,2013-02-10 23:08:00,
2013-02-10 17:23:00,48.8,47.0,29.46,South,173,8.0,15.0,92,0.00,,,0.52,weatherlink.com 1.10,2013-02-10 23:23:00,
2013-02-10 17:38:00,48.9,47.0,29.47,SSW,197,7.0,16.0,92,0.00,,,0.52,weatherlink.com 1.10,2013-02-10 23:38:00,
2013-02-10 17:53:00,48.8,47.0,29.46,ESE,114,7.0,16.0,92,0.00,,,0.52,weatherlink.com 1.10,2013-02-10 23:53:00,
2013-02-10 18:08:00,49.3,47.0,29.48,SSE,149,6.0,16.0,91,0.00,,,0.52,weatherlink.com 1.10,2013-02-11 00:08:00,
2013-02-10 18:23:00,49.6,47.0,29.48,SSE,155,8.0,18.0,91,0.00,,,0.52,weatherlink.com 1.10,2013-02-11 00:23:00,
2013-02-10 18:38:00,50.3,47.0,29.50,South,169,9.0,23.0,89,0.00,,,0.52,weatherlink.com 1.10,2013-02-11 00:38:00,
2013-02-10 18:53:00,49.6,46.0,29.51,South,170,7.0,14.0,88,0.00,,,0.52,weatherlink.com 1.10,2013-02-11 00:53:00,
2013-02-10 19:08:00,49.0,43.0,29.52,West,277,2.0,12.0,79,0.00,,,0.52,weatherlink.com 1.10,2013-02-11 01:08:00,
2013-02-10 19:23:00,48.1,39.0,29.53,South,177,5.0,14.0,71,0.00,,,0.52,weatherlink.com 1.10,2013-02-11 01:23:00,
2013-02-10 19:38:00,47.2,38.0,29.53,NW,309,5.0,16.0,70,0.00,,,0.52,weatherlink.com 1.10,2013-02-11 01:38:00,
2013-02-10 19:53:00,46.5,38.0,29.54,South,186,3.0,12.0,71,0.00,,,0.52,weatherlink.com 1.10,2013-02-11 01:53:00,
2013-02-10 20:08:00,45.9,37.0,29.54,West,270,1.0,10.0,72,0.00,,,0.52,weatherlink.com 1.10,2013-02-11 02:08:00,
2013-02-10 20:23:00,45.5,37.0,29.54,SW,236,3.0,10.0,73,0.00,,,0.52,weatherlink.com 1.10,2013-02-11 02:23:00,
2013-02-10 20:38:00,45.2,37.0,29.54,SSE,156,10.0,12.0,73,0.00,,,0.52,weatherlink.com 1.10,2013-02-11 02:38:00,
2013-02-10 20:53:00,45.7,36.0,29.55,SW,232,2.0,17.0,70,0.00,,,0.52,weatherlink.com 1.10,2013-02-11 02:53:00,
2013-02-10 21:08:00,45.5,36.0,29.56,NE,56,6.0,17.0,70,0.00,,,0.52,weatherlink.com 1.10,2013-02-11 03:08:00,
2013-02-10 21:23:00,44.9,36.0,29.55,WSW,241,9.0,13.0,71,0.00,,,0.52,weatherlink.com 1.10,2013-02-11 03:23:00,
2013-02-10 21:38:00,44.3,36.0,29.56,NE,48,4.0,14.0,73,0.00,,,0.52,weatherlink.com 1.10,2013-02-11 03:38:00,
2013-02-10 21:53:00,44.0,35.0,29.57,SSW,192,3.0,20.0,70,0.00,,,0.52,weatherlink.com 1.10,2013-02-11 03:53:00,
2013-02-10 22:08:00,43.4,33.0,29.57,South,190,3.0,22.0,68,0.00,,,0.52,weatherlink.com 1.10,2013-02-11 04:08:00,
2013-02-10 22:23:00,42.4,33.0,29.57,WSW,249,3.0,13.0,70,0.00,,,0.52,weatherlink.com 1.10,2013-02-11 04:23:00,
2013-02-10 22:38:00,42.1,33.0,29.57,SE,141,5.0,13.0,71,0.00,,,0.52,weatherlink.com 1.10,2013-02-11 04:38:00,
2013-02-10 22:53:00,41.5,33.0,29.58,South,186,2.0,15.0,73,0.00,,,0.52,weatherlink.com 1.10,2013-02-11 04:53:00,
2013-02-10 23:08:00,40.9,34.0,29.59,WNW,283,10.0,13.0,75,0.00,,,0.52,weatherlink.com 1.10,2013-02-11 05:08:00,
2013-02-10 23:23:00,40.1,32.0,29.59,WNW,290,4.0,22.0,74,0.00,,,0.52,weatherlink.com 1.10,2013-02-11 05:23:00,
2013-02-10 23:38:00,39.2,32.0,29.60,WSW,245,17.0,21.0,75,0.00,,,0.52,weatherlink.com 1.10,2013-02-11 05:38:00,
2013-02-10 23:53:00,38.7,31.0,29.61,SW,231,9.0,28.0,75,0.00,,,0.52,weatherlink.com 1.10,2013-02-11 05:53:00,